sensor_id;sensor_type;location;lat;lon;timestamp;pressure;altitude;pressure_sealevel;temperature;humidity
64844;BME280;51310;52.198;5.422;2022-12-01T00:01:14;102573.22;;;3.68;100.00
64844;BME280;51310;52.198;5.422;2022-12-01T00:03:40;102577.41;;;3.67;100.00
64844;BME280;51310;52.198;5.422;2022-12-01T00:06:17;102567.66;;;3.70;100.00
64844;BME280;51310;52.198;5.422;2022-12-01T00:08:47;102571.13;;;3.71;100.00
64844;BME280;51310;52.198;5.422;2022-12-01T00:11:35;102567.19;;;3.73;100.00
64844;BME280;51310;52.198;5.422;2022-12-01T00:14:03;102570.44;;;3.72;100.00
64844;BME280;51310;52.198;5.422;2022-12-01T00:16:30;102560.47;;;3.74;100.00
64844;BME280;51310;52.198;5.422;2022-12-01T00:18:56;102568.09;;;3.74;100.00
64844;BME280;51310;52.198;5.422;2022-12-01T00:21:24;102569.06;;;3.74;100.00
64844;BME280;51310;52.198;5.422;2022-12-01T00:23:54;102564.41;;;3.77;100.00
64844;BME280;51310;52.198;5.422;2022-12-01T00:26:22;102576.47;;;3.78;100.00
64844;BME280;51310;52.198;5.422;2022-12-01T00:28:58;102568.13;;;3.79;100.00
64844;BME280;51310;52.198;5.422;2022-12-01T00:31:25;102566.50;;;3.85;100.00
64844;BME280;51310;52.198;5.422;2022-12-01T00:33:51;102571.59;;;3.80;100.00
64844;BME280;51310;52.198;5.422;2022-12-01T00:36:17;102564.63;;;3.84;100.00
64844;BME280;51310;52.198;5.422;2022-12-01T00:38:43;102564.63;;;3.84;100.00
64844;BME280;51310;52.198;5.422;2022-12-01T00:41:10;102563.50;;;3.82;100.00
64844;BME280;51310;52.198;5.422;2022-12-01T00:43:35;102563.03;;;4.02;100.00
64844;BME280;51310;52.198;5.422;2022-12-01T00:46:02;102562.09;;;3.90;100.00
64844;BME280;51310;52.198;5.422;2022-12-01T00:48:28;102562.78;;;3.95;100.00
64844;BME280;51310;52.198;5.422;2022-12-01T00:50:54;102563.47;;;3.99;100.00
64844;BME280;51310;52.198;5.422;2022-12-01T00:53:21;102562.09;;;4.07;100.00
64844;BME280;51310;52.198;5.422;2022-12-01T00:55:47;102561.81;;;4.17;100.00
64844;BME280;51310;52.198;5.422;2022-12-01T00:58:13;102564.41;;;4.05;100.00
64844;BME280;51310;52.198;5.422;2022-12-01T01:00:39;102567.44;;;4.08;100.00
64844;BME280;51310;52.198;5.422;2022-12-01T01:03:07;102564.44;;;4.00;100.00
64844;BME280;51310;52.198;5.422;2022-12-01T01:05:38;102564.88;;;3.97;100.00
64844;BME280;51310;52.198;5.422;2022-12-01T01:08:10;102574.84;;;3.96;100.00
64844;BME280;51310;52.198;5.422;2022-12-01T01:10:39;102573.47;;;3.98;100.00
64844;BME280;51310;52.198;5.422;2022-12-01T01:13:06;102577.81;;;4.10;100.00
64844;BME280;51310;52.198;5.422;2022-12-01T01:15:32;102576.91;;;4.09;100.00
64844;BME280;51310;52.198;5.422;2022-12-01T01:17:58;102582.69;;;4.14;100.00
64844;BME280;51310;52.198;5.422;2022-12-01T01:20:24;102581.31;;;3.99;100.00
64844;BME280;51310;52.198;5.422;2022-12-01T01:22:50;102582.50;;;3.96;100.00
64844;BME280;51310;52.198;5.422;2022-12-01T01:25:16;102577.16;;;4.00;100.00
64844;BME280;51310;52.198;5.422;2022-12-01T01:27:42;102578.09;;;3.89;100.00
64844;BME280;51310;52.198;5.422;2022-12-01T01:30:08;102581.09;;;3.92;100.00
64844;BME280;51310;52.198;5.422;2022-12-01T01:32:35;102588.28;;;3.89;100.00
64844;BME280;51310;52.198;5.422;2022-12-01T01:35:00;102585.50;;;3.87;100.00
64844;BME280;51310;52.198;5.422;2022-12-01T01:37:26;102579.00;;;3.89;100.00
64844;BME280;51310;52.198;5.422;2022-12-01T01:39:52;102587.81;;;3.80;100.00
64844;BME280;51310;52.198;5.422;2022-12-01T01:42:19;102585.72;;;3.83;100.00
64844;BME280;51310;52.198;5.422;2022-12-01T01:44:55;102596.84;;;3.89;100.00
64844;BME280;51310;52.198;5.422;2022-12-01T01:47:37;102589.66;;;3.98;100.00
64844;BME280;51310;52.198;5.422;2022-12-01T01:50:09;102587.56;;;4.07;100.00
64844;BME280;51310;52.198;5.422;2022-12-01T01:52:42;102585.25;;;4.03;100.00
64844;BME280;51310;52.198;5.422;2022-12-01T01:55:11;102586.91;;;3.91;100.00
64844;BME280;51310;52.198;5.422;2022-12-01T01:57:39;102586.88;;;3.97;100.00
64844;BME280;51310;52.198;5.422;2022-12-01T02:00:14;102591.50;;;4.10;100.00
64844;BME280;51310;52.198;5.422;2022-12-01T02:02:44;102583.88;;;4.10;100.00
64844;BME280;51310;52.198;5.422;2022-12-01T02:05:24;102585.00;;;4.01;100.00
64844;BME280;51310;52.198;5.422;2022-12-01T02:07:56;102585.03;;;3.96;100.00
64844;BME280;51310;52.198;5.422;2022-12-01T02:10:48;102585.25;;;3.86;100.00
64844;BME280;51310;52.198;5.422;2022-12-01T02:13:34;102581.31;;;3.88;100.00
64844;BME280;51310;52.198;5.422;2022-12-01T02:16:19;102582.94;;;3.87;100.00
64844;BME280;51310;52.198;5.422;2022-12-01T02:25:19;102569.50;;;3.88;100.00
64844;BME280;51310;52.198;5.422;2022-12-01T02:30:49;102577.16;;;3.94;100.00
64844;BME280;51310;52.198;5.422;2022-12-01T02:33:28;102576.69;;;3.97;100.00
64844;BME280;51310;52.198;5.422;2022-12-01T02:39:53;102570.44;;;4.00;100.00
64844;BME280;51310;52.198;5.422;2022-12-01T02:42:38;102568.34;;;3.92;100.00
64844;BME280;51310;52.198;5.422;2022-12-01T02:45:49;102573.91;;;4.01;100.00
64844;BME280;51310;52.198;5.422;2022-12-01T02:48:31;102571.13;;;4.05;100.00
64844;BME280;51310;52.198;5.422;2022-12-01T02:51:06;102571.34;;;3.95;100.00
64844;BME280;51310;52.198;5.422;2022-12-01T02:53:36;102574.38;;;3.98;100.00
64844;BME280;51310;52.198;5.422;2022-12-01T02:56:08;102572.31;;;3.96;100.00
64844;BME280;51310;52.198;5.422;2022-12-01T02:58:36;102571.34;;;4.01;100.00
64844;BME280;51310;52.198;5.422;2022-12-01T03:10:28;102578.75;;;3.99;100.00
64844;BME280;51310;52.198;5.422;2022-12-01T03:13:43;102585.50;;;3.93;100.00
64844;BME280;51310;52.198;5.422;2022-12-01T03:16:49;102585.94;;;3.90;100.00
64844;BME280;51310;52.198;5.422;2022-12-01T03:19:28;102587.78;;;3.97;100.00
64844;BME280;51310;52.198;5.422;2022-12-01T03:22:17;102575.75;;;3.96;100.00
64844;BME280;51310;52.198;5.422;2022-12-01T03:24:52;102578.53;;;3.92;100.00
64844;BME280;51310;52.198;5.422;2022-12-01T03:27:26;102578.31;;;3.90;100.00
64844;BME280;51310;52.198;5.422;2022-12-01T03:29:58;102575.28;;;3.99;100.00
64844;BME280;51310;52.198;5.422;2022-12-01T03:32:58;102583.41;;;3.90;100.00
64844;BME280;51310;52.198;5.422;2022-12-01T03:35:37;102582.47;;;3.90;100.00
64844;BME280;51310;52.198;5.422;2022-12-01T03:38:16;102582.47;;;3.84;100.00
64844;BME280;51310;52.198;5.422;2022-12-01T03:40:48;102580.66;;;3.89;100.00
64844;BME280;51310;52.198;5.422;2022-12-01T03:43:23;102580.63;;;3.83;100.00
64844;BME280;51310;52.198;5.422;2022-12-01T03:46:18;102582.00;;;3.81;100.00
64844;BME280;51310;52.198;5.422;2022-12-01T03:48:54;102592.44;;;3.83;100.00
64844;BME280;51310;52.198;5.422;2022-12-01T03:51:46;102585.94;;;3.79;100.00
64844;BME280;51310;52.198;5.422;2022-12-01T03:54:44;102583.19;;;3.83;100.00
64844;BME280;51310;52.198;5.422;2022-12-01T03:57:20;102572.78;;;3.76;100.00
64844;BME280;51310;52.198;5.422;2022-12-01T03:59:50;102575.31;;;3.76;100.00
64844;BME280;51310;52.198;5.422;2022-12-01T04:02:17;102583.41;;;3.79;100.00
64844;BME280;51310;52.198;5.422;2022-12-01T04:04:43;102587.34;;;3.77;100.00
64844;BME280;51310;52.198;5.422;2022-12-01T04:07:09;102585.00;;;3.73;100.00
64844;BME280;51310;52.198;5.422;2022-12-01T04:09:40;102587.81;;;3.75;100.00
64844;BME280;51310;52.198;5.422;2022-12-01T04:12:09;102585.00;;;3.73;100.00
64844;BME280;51310;52.198;5.422;2022-12-01T04:14:57;102587.09;;;3.81;100.00
64844;BME280;51310;52.198;5.422;2022-12-01T04:17:26;102594.53;;;3.85;100.00
64844;BME280;51310;52.198;5.422;2022-12-01T04:19:52;102580.16;;;3.75;100.00
64844;BME280;51310;52.198;5.422;2022-12-01T04:22:19;102582.69;;;3.69;100.00
64844;BME280;51310;52.198;5.422;2022-12-01T04:24:45;102585.47;;;3.65;100.00
64844;BME280;51310;52.198;5.422;2022-12-01T04:27:11;102577.16;;;3.66;100.00
64844;BME280;51310;52.198;5.422;2022-12-01T04:29:37;102580.84;;;3.68;100.00
64844;BME280;51310;52.198;5.422;2022-12-01T04:32:03;102584.78;;;3.66;100.00
64844;BME280;51310;52.198;5.422;2022-12-01T04:34:29;102589.16;;;3.67;100.00
64844;BME280;51310;52.198;5.422;2022-12-01T04:36:55;102587.13;;;3.70;100.00
64844;BME280;51310;52.198;5.422;2022-12-01T04:39:21;102582.69;;;3.69;100.00
64844;BME280;51310;52.198;5.422;2022-12-01T04:41:47;102579.69;;;3.66;100.00
64844;BME280;51310;52.198;5.422;2022-12-01T04:44:13;102592.44;;;3.66;100.00
64844;BME280;51310;52.198;5.422;2022-12-01T04:46:39;102589.16;;;3.67;100.00
64844;BME280;51310;52.198;5.422;2022-12-01T04:49:06;102588.25;;;3.66;100.00
64844;BME280;51310;52.198;5.422;2022-12-01T04:51:32;102588.72;;;3.64;100.00
64844;BME280;51310;52.198;5.422;2022-12-01T04:53:58;102592.91;;;3.63;100.00
64844;BME280;51310;52.198;5.422;2022-12-01T04:56:23;102597.53;;;3.66;100.00
64844;BME280;51310;52.198;5.422;2022-12-01T04:58:49;102593.38;;;3.61;100.00
64844;BME280;51310;52.198;5.422;2022-12-01T05:01:17;102586.41;;;3.60;100.00
64844;BME280;51310;52.198;5.422;2022-12-01T05:03:46;102579.69;;;3.60;100.00
64844;BME280;51310;52.198;5.422;2022-12-01T05:06:26;102582.44;;;3.56;100.00
64844;BME280;51310;52.198;5.422;2022-12-01T05:08:58;102588.00;;;3.54;100.00
64844;BME280;51310;52.198;5.422;2022-12-01T05:11:28;102577.63;;;3.52;100.00
64844;BME280;51310;52.198;5.422;2022-12-01T05:13:55;102592.41;;;3.49;100.00
64844;BME280;51310;52.198;5.422;2022-12-01T05:16:28;102593.56;;;3.40;100.00
64844;BME280;51310;52.198;5.422;2022-12-01T05:19:00;102605.63;;;3.52;100.00
64844;BME280;51310;52.198;5.422;2022-12-01T05:21:48;102604.22;;;3.48;100.00
64844;BME280;51310;52.198;5.422;2022-12-01T05:24:16;102597.72;;;3.39;100.00
64844;BME280;51310;52.198;5.422;2022-12-01T05:26:43;102593.31;;;3.33;100.00
64844;BME280;51310;52.198;5.422;2022-12-01T05:29:13;102602.09;;;3.29;100.00
64844;BME280;51310;52.198;5.422;2022-12-01T05:31:39;102609.47;;;3.27;100.00
64844;BME280;51310;52.198;5.422;2022-12-01T05:34:06;102601.16;;;3.28;100.00
64844;BME280;51310;52.198;5.422;2022-12-01T05:36:32;102612.03;;;3.27;100.00
64844;BME280;51310;52.198;5.422;2022-12-01T05:38:58;102603.47;;;3.27;100.00
64844;BME280;51310;52.198;5.422;2022-12-01T05:41:23;102605.31;;;3.28;100.00
64844;BME280;51310;52.198;5.422;2022-12-01T05:43:49;102604.13;;;3.26;100.00
64844;BME280;51310;52.198;5.422;2022-12-01T05:46:15;102602.75;;;3.28;100.00
64844;BME280;51310;52.198;5.422;2022-12-01T05:48:41;102607.84;;;3.28;100.00
64844;BME280;51310;52.198;5.422;2022-12-01T05:51:10;102606.53;;;3.41;100.00
64844;BME280;51310;52.198;5.422;2022-12-01T05:53:37;102601.88;;;3.44;100.00
64844;BME280;51310;52.198;5.422;2022-12-01T05:56:04;102601.66;;;3.48;100.00
64844;BME280;51310;52.198;5.422;2022-12-01T05:58:30;102598.63;;;3.45;100.00
64844;BME280;51310;52.198;5.422;2022-12-01T06:00:57;102586.16;;;3.41;100.00
64844;BME280;51310;52.198;5.422;2022-12-01T06:03:23;102585.91;;;3.40;100.00
64844;BME280;51310;52.198;5.422;2022-12-01T06:05:49;102593.06;;;3.37;100.00
64844;BME280;51310;52.198;5.422;2022-12-01T06:08:15;102597.94;;;3.35;100.00
64844;BME280;51310;52.198;5.422;2022-12-01T06:10:41;102612.25;;;3.18;100.00
64844;BME280;51310;52.198;5.422;2022-12-01T06:13:07;102602.00;;;3.06;100.00
64844;BME280;51310;52.198;5.422;2022-12-01T06:15:33;102596.91;;;3.06;100.00
64844;BME280;51310;52.198;5.422;2022-12-01T06:17:59;102613.75;;;2.95;100.00
64844;BME280;51310;52.198;5.422;2022-12-01T06:20:25;102608.22;;;2.97;100.00
64844;BME280;51310;52.198;5.422;2022-12-01T06:22:51;102608.84;;;2.85;100.00
64844;BME280;51310;52.198;5.422;2022-12-01T06:25:16;102610.22;;;2.83;100.00
64844;BME280;51310;52.198;5.422;2022-12-01T06:27:42;102613.00;;;2.79;100.00
64844;BME280;51310;52.198;5.422;2022-12-01T06:30:09;102614.19;;;2.86;100.00
64844;BME280;51310;52.198;5.422;2022-12-01T06:32:35;102610.47;;;2.79;100.00
64844;BME280;51310;52.198;5.422;2022-12-01T06:35:01;102616.06;;;2.93;100.00
64844;BME280;51310;52.198;5.422;2022-12-01T06:37:27;102609.81;;;2.85;100.00
64844;BME280;51310;52.198;5.422;2022-12-01T06:39:54;102615.75;;;2.75;100.00
64844;BME280;51310;52.198;5.422;2022-12-01T06:42:19;102610.31;;;2.94;100.00
64844;BME280;51310;52.198;5.422;2022-12-01T06:44:45;102621.34;;;2.83;100.00
64844;BME280;51310;52.198;5.422;2022-12-01T06:47:11;102612.50;;;2.70;100.00
64844;BME280;51310;52.198;5.422;2022-12-01T06:49:37;102609.66;;;2.63;100.00
64844;BME280;51310;52.198;5.422;2022-12-01T06:52:04;102616.06;;;2.50;100.00
64844;BME280;51310;52.198;5.422;2022-12-01T06:54:30;102619.06;;;2.53;100.00
64844;BME280;51310;52.198;5.422;2022-12-01T06:56:56;102620.63;;;2.41;100.00
64844;BME280;51310;52.198;5.422;2022-12-01T06:59:22;102626.03;;;2.54;100.00
64844;BME280;51310;52.198;5.422;2022-12-01T07:01:49;102628.72;;;2.44;100.00
64844;BME280;51310;52.198;5.422;2022-12-01T07:04:15;102626.78;;;2.64;100.00
64844;BME280;51310;52.198;5.422;2022-12-01T07:06:40;102639.31;;;2.36;100.00
64844;BME280;51310;52.198;5.422;2022-12-01T07:09:06;102641.75;;;2.24;100.00
64844;BME280;51310;52.198;5.422;2022-12-01T07:11:32;102645.47;;;2.26;100.00
64844;BME280;51310;52.198;5.422;2022-12-01T07:14:00;102643.25;;;2.39;100.00
64844;BME280;51310;52.198;5.422;2022-12-01T07:16:26;102651.44;;;2.54;100.00
64844;BME280;51310;52.198;5.422;2022-12-01T07:18:52;102651.00;;;2.56;100.00
64844;BME280;51310;52.198;5.422;2022-12-01T07:21:18;102658.59;;;2.51;100.00
64844;BME280;51310;52.198;5.422;2022-12-01T07:23:44;102656.91;;;2.40;100.00
64844;BME280;51310;52.198;5.422;2022-12-01T07:26:16;102664.09;;;2.48;100.00
64844;BME280;51310;52.198;5.422;2022-12-01T07:28:43;102663.16;;;2.42;100.00
64844;BME280;51310;52.198;5.422;2022-12-01T07:31:14;102662.59;;;2.28;100.00
64844;BME280;51310;52.198;5.422;2022-12-01T07:33:41;102663.03;;;2.25;100.00
64844;BME280;51310;52.198;5.422;2022-12-01T07:36:09;102666.97;;;2.29;100.00
64844;BME280;51310;52.198;5.422;2022-12-01T07:38:37;102669.75;;;2.30;100.00
64844;BME280;51310;52.198;5.422;2022-12-01T07:41:13;102673.72;;;2.34;100.00
64844;BME280;51310;52.198;5.422;2022-12-01T07:43:41;102669.31;;;2.33;100.00
64844;BME280;51310;52.198;5.422;2022-12-01T07:46:11;102679.44;;;2.27;100.00
64844;BME280;51310;52.198;5.422;2022-12-01T07:48:39;102671.84;;;2.27;100.00
64844;BME280;51310;52.198;5.422;2022-12-01T07:51:09;102672.75;;;2.28;100.00
64844;BME280;51310;52.198;5.422;2022-12-01T07:53:36;102673.88;;;2.24;100.00
64844;BME280;51310;52.198;5.422;2022-12-01T07:56:04;102682.41;;;2.24;100.00
64844;BME280;51310;52.198;5.422;2022-12-01T07:58:31;102672.78;;;2.33;100.00
64844;BME280;51310;52.198;5.422;2022-12-01T08:01:03;102685.34;;;2.43;100.00
64844;BME280;51310;52.198;5.422;2022-12-01T08:03:31;102682.22;;;2.61;100.00
64844;BME280;51310;52.198;5.422;2022-12-01T08:05:58;102685.91;;;2.57;100.00
64844;BME280;51310;52.198;5.422;2022-12-01T08:08:25;102679.97;;;2.68;100.00
64844;BME280;51310;52.198;5.422;2022-12-01T08:10:52;102682.13;;;2.82;100.00
64844;BME280;51310;52.198;5.422;2022-12-01T08:13:19;102687.47;;;2.89;100.00
64844;BME280;51310;52.198;5.422;2022-12-01T08:15:45;102687.56;;;3.00;100.00
64844;BME280;51310;52.198;5.422;2022-12-01T08:18:11;102691.03;;;3.06;100.00
64844;BME280;51310;52.198;5.422;2022-12-01T08:20:37;102690.06;;;2.95;100.00
64844;BME280;51310;52.198;5.422;2022-12-01T08:23:04;102696.81;;;3.05;100.00
64844;BME280;51310;52.198;5.422;2022-12-01T08:25:29;102690.50;;;2.92;100.00
64844;BME280;51310;52.198;5.422;2022-12-01T08:27:55;102691.69;;;2.94;100.00
64844;BME280;51310;52.198;5.422;2022-12-01T08:30:22;102694.31;;;3.17;100.00
64844;BME280;51310;52.198;5.422;2022-12-01T08:32:48;102690.16;;;3.17;100.00
64844;BME280;51310;52.198;5.422;2022-12-01T08:35:14;102693.16;;;3.15;100.00
64844;BME280;51310;52.198;5.422;2022-12-01T08:37:39;102701.66;;;2.98;100.00
64844;BME280;51310;52.198;5.422;2022-12-01T08:40:06;102699.16;;;3.15;100.00
64844;BME280;51310;52.198;5.422;2022-12-01T08:42:32;102708.25;;;3.30;100.00
64844;BME280;51310;52.198;5.422;2022-12-01T08:44:58;102701.25;;;3.12;100.00
64844;BME280;51310;52.198;5.422;2022-12-01T08:47:27;102700.34;;;3.17;100.00
64844;BME280;51310;52.198;5.422;2022-12-01T08:49:53;102702.41;;;3.14;100.00
64844;BME280;51310;52.198;5.422;2022-12-01T08:52:20;102710.25;;;3.10;100.00
64844;BME280;51310;52.198;5.422;2022-12-01T08:54:46;102711.00;;;3.20;100.00
64844;BME280;51310;52.198;5.422;2022-12-01T08:57:12;102703.59;;;3.16;100.00
64844;BME280;51310;52.198;5.422;2022-12-01T08:59:38;102705.22;;;3.16;100.00
64844;BME280;51310;52.198;5.422;2022-12-01T09:02:04;102704.25;;;3.10;100.00
64844;BME280;51310;52.198;5.422;2022-12-01T09:04:31;102702.41;;;3.14;100.00
64844;BME280;51310;52.198;5.422;2022-12-01T09:06:57;102692.69;;;3.12;100.00
64844;BME280;51310;52.198;5.422;2022-12-01T09:09:27;102699.63;;;3.13;100.00
64844;BME280;51310;52.198;5.422;2022-12-01T09:11:54;102696.41;;;3.14;100.00
64844;BME280;51310;52.198;5.422;2022-12-01T09:14:21;102691.31;;;3.14;100.00
64844;BME280;51310;52.198;5.422;2022-12-01T09:16:49;102691.78;;;3.17;100.00
64844;BME280;51310;52.198;5.422;2022-12-01T09:19:17;102693.66;;;3.18;100.00
64844;BME280;51310;52.198;5.422;2022-12-01T09:21:44;102698.75;;;3.23;100.00
64844;BME280;51310;52.198;5.422;2022-12-01T09:24:13;102700.13;;;3.21;100.00
64844;BME280;51310;52.198;5.422;2022-12-01T09:26:40;102704.78;;;3.29;100.00
64844;BME280;51310;52.198;5.422;2022-12-01T09:29:10;102695.75;;;3.26;100.00
64844;BME280;51310;52.198;5.422;2022-12-01T09:31:39;102697.81;;;3.23;100.00
64844;BME280;51310;52.198;5.422;2022-12-01T09:34:11;102698.53;;;3.27;100.00
64844;BME280;51310;52.198;5.422;2022-12-01T09:36:38;102696.25;;;3.29;100.00
64844;BME280;51310;52.198;5.422;2022-12-01T09:39:06;102692.03;;;3.24;100.00
64844;BME280;51310;52.198;5.422;2022-12-01T09:41:39;102687.22;;;3.37;100.00
64844;BME280;51310;52.198;5.422;2022-12-01T09:44:37;102694.19;;;3.43;100.00
64844;BME280;51310;52.198;5.422;2022-12-01T09:47:27;102686.59;;;3.49;100.00
64844;BME280;51310;52.198;5.422;2022-12-01T09:50:18;102685.44;;;3.53;100.00
64844;BME280;51310;52.198;5.422;2022-12-01T09:53:07;102680.81;;;3.56;100.00
64844;BME280;51310;52.198;5.422;2022-12-01T09:55:34;102679.47;;;3.63;100.00
64844;BME280;51310;52.198;5.422;2022-12-01T09:58:03;102672.75;;;3.64;100.00
64844;BME280;51310;52.198;5.422;2022-12-01T10:00:34;102675.78;;;3.78;100.00
64844;BME280;51310;52.198;5.422;2022-12-01T10:03:36;102678.31;;;3.84;100.00
64844;BME280;51310;52.198;5.422;2022-12-01T10:06:24;102679.97;;;3.89;100.00
64844;BME280;51310;52.198;5.422;2022-12-01T10:12:15;102666.31;;;4.00;100.00
64844;BME280;51310;52.198;5.422;2022-12-01T10:14:46;102675.34;;;3.98;100.00
64844;BME280;51310;52.198;5.422;2022-12-01T10:17:41;102684.59;;;3.92;100.00
64844;BME280;51310;52.198;5.422;2022-12-01T10:20:35;102683.00;;;3.98;100.00
64844;BME280;51310;52.198;5.422;2022-12-01T10:26:06;102673.50;;;4.19;100.00
64844;BME280;51310;52.198;5.422;2022-12-01T10:31:58;102675.13;;;4.07;100.00
64844;BME280;51310;52.198;5.422;2022-12-01T10:34:32;102679.53;;;4.08;100.00
64844;BME280;51310;52.198;5.422;2022-12-01T10:37:00;102676.06;;;4.02;100.00
64844;BME280;51310;52.198;5.422;2022-12-01T10:39:40;102681.13;;;4.08;100.00
64844;BME280;51310;52.198;5.422;2022-12-01T10:45:25;102673.75;;;4.32;100.00
64844;BME280;51310;52.198;5.422;2022-12-01T10:50:53;102674.66;;;4.44;100.00
64844;BME280;51310;52.198;5.422;2022-12-01T10:53:31;102665.81;;;4.59;100.00
64844;BME280;51310;52.198;5.422;2022-12-01T10:58:49;102670.91;;;4.59;100.00
64844;BME280;51310;52.198;5.422;2022-12-01T11:01:21;102661.16;;;4.67;100.00
64844;BME280;51310;52.198;5.422;2022-12-01T11:03:57;102653.75;;;4.69;100.00
64844;BME280;51310;52.198;5.422;2022-12-01T11:06:29;102663.69;;;4.79;100.00
64844;BME280;51310;52.198;5.422;2022-12-01T11:09:03;102654.38;;;4.90;100.00
64844;BME280;51310;52.198;5.422;2022-12-01T11:11:36;102656.28;;;4.80;100.00
64844;BME280;51310;52.198;5.422;2022-12-01T11:14:16;102657.81;;;4.97;100.00
64844;BME280;51310;52.198;5.422;2022-12-01T11:16:47;102662.22;;;5.03;100.00
64844;BME280;51310;52.198;5.422;2022-12-01T11:19:30;102656.16;;;5.14;100.00
64844;BME280;51310;52.198;5.422;2022-12-01T11:22:01;102660.06;;;5.23;100.00
64844;BME280;51310;52.198;5.422;2022-12-01T11:27:20;102652.66;;;5.13;100.00
64844;BME280;51310;52.198;5.422;2022-12-01T11:29:51;102644.31;;;5.14;100.00
64844;BME280;51310;52.198;5.422;2022-12-01T11:32:29;102646.94;;;5.03;100.00
64844;BME280;51310;52.198;5.422;2022-12-01T11:35:03;102642.94;;;5.05;100.00
64844;BME280;51310;52.198;5.422;2022-12-01T11:37:45;102639.28;;;4.98;100.00
64844;BME280;51310;52.198;5.422;2022-12-01T11:40:21;102643.22;;;4.96;100.00
64844;BME280;51310;52.198;5.422;2022-12-01T11:42:52;102636.53;;;4.90;100.00
64844;BME280;51310;52.198;5.422;2022-12-01T11:53:43;102628.09;;;5.03;100.00
64844;BME280;51310;52.198;5.422;2022-12-01T11:58:42;102625.31;;;5.07;100.00
64844;BME280;51310;52.198;5.422;2022-12-01T12:01:24;102619.97;;;5.11;100.00
64844;BME280;51310;52.198;5.422;2022-12-01T12:04:19;102609.94;;;5.18;100.00
64844;BME280;51310;52.198;5.422;2022-12-01T12:10:43;102615.88;;;5.35;100.00
64844;BME280;51310;52.198;5.422;2022-12-01T12:13:51;102614.28;;;5.36;100.00
64844;BME280;51310;52.198;5.422;2022-12-01T12:20:01;102613.78;;;5.44;100.00
64844;BME280;51310;52.198;5.422;2022-12-01T12:26:29;102607.28;;;5.41;100.00
64844;BME280;51310;52.198;5.422;2022-12-01T12:32:27;102619.16;;;5.29;100.00
64844;BME280;51310;52.198;5.422;2022-12-01T12:38:32;102602.97;;;5.23;100.00
64844;BME280;51310;52.198;5.422;2022-12-01T12:44:54;102605.94;;;5.31;100.00
64844;BME280;51310;52.198;5.422;2022-12-01T12:53:39;102597.78;;;4.93;100.00
64844;BME280;51310;52.198;5.422;2022-12-01T12:56:23;102586.19;;;4.95;100.00
64844;BME280;51310;52.198;5.422;2022-12-01T12:59:22;102588.06;;;4.85;100.00
64844;BME280;51310;52.198;5.422;2022-12-01T13:02:11;102594.03;;;4.97;100.00
64844;BME280;51310;52.198;5.422;2022-12-01T13:04:46;102587.50;;;5.04;100.00
64844;BME280;51310;52.198;5.422;2022-12-01T13:07:46;102584.09;;;4.92;100.00
64844;BME280;51310;52.198;5.422;2022-12-01T13:15:50;102591.28;;;4.95;100.00
64844;BME280;51310;52.198;5.422;2022-12-01T13:18:38;102586.19;;;4.89;100.00
64844;BME280;51310;52.198;5.422;2022-12-01T13:21:18;102582.25;;;4.86;100.00
64844;BME280;51310;52.198;5.422;2022-12-01T13:23:47;102586.66;;;4.92;100.00
64844;BME280;51310;52.198;5.422;2022-12-01T13:26:19;102583.88;;;4.85;100.00
64844;BME280;51310;52.198;5.422;2022-12-01T13:28:52;102582.72;;;4.89;100.00
64844;BME280;51310;52.198;5.422;2022-12-01T13:31:21;102586.66;;;4.92;100.00
64844;BME280;51310;52.198;5.422;2022-12-01T13:36:26;102586.84;;;5.00;100.00
64844;BME280;51310;52.198;5.422;2022-12-01T13:39:03;102580.13;;;4.94;100.00
64844;BME280;51310;52.198;5.422;2022-12-01T13:41:33;102578.72;;;4.97;100.00
64844;BME280;51310;52.198;5.422;2022-12-01T13:44:52;102581.69;;;5.05;100.00
64844;BME280;51310;52.198;5.422;2022-12-01T13:49:43;102574.09;;;4.94;100.00
64844;BME280;51310;52.198;5.422;2022-12-01T13:52:31;102574.59;;;4.91;100.00
64844;BME280;51310;52.198;5.422;2022-12-01T14:00:33;102572.75;;;4.85;100.00
64844;BME280;51310;52.198;5.422;2022-12-01T14:03:36;102568.81;;;4.81;100.00
64844;BME280;51310;52.198;5.422;2022-12-01T14:06:19;102565.59;;;4.77;100.00
64844;BME280;51310;52.198;5.422;2022-12-01T14:09:01;102563.97;;;4.77;100.00
64844;BME280;51310;52.198;5.422;2022-12-01T14:11:32;102564.91;;;4.78;100.00
64844;BME280;51310;52.198;5.422;2022-12-01T14:14:18;102552.41;;;4.73;100.00
64844;BME280;51310;52.198;5.422;2022-12-01T14:16:51;102564.00;;;4.71;100.00
64844;BME280;51310;52.198;5.422;2022-12-01T14:19:47;102558.88;;;4.77;100.00
64844;BME280;51310;52.198;5.422;2022-12-01T14:22:39;102560.53;;;4.71;100.00
64844;BME280;51310;52.198;5.422;2022-12-01T14:25:26;102561.47;;;4.71;100.00
64844;BME280;51310;52.198;5.422;2022-12-01T14:27:58;102567.00;;;4.75;100.00
64844;BME280;51310;52.198;5.422;2022-12-01T14:33:47;102562.88;;;4.64;100.00
64844;BME280;51310;52.198;5.422;2022-12-01T14:36:48;102557.81;;;4.58;100.00
64844;BME280;51310;52.198;5.422;2022-12-01T14:41:54;102558.00;;;4.60;100.00
64844;BME280;51310;52.198;5.422;2022-12-01T14:47:26;102570.84;;;4.43;100.00
64844;BME280;51310;52.198;5.422;2022-12-01T14:52:56;102572.91;;;4.45;100.00
64844;BME280;51310;52.198;5.422;2022-12-01T14:55:46;102563.63;;;4.40;100.00
64844;BME280;51310;52.198;5.422;2022-12-01T14:58:26;102551.16;;;4.30;100.00
64844;BME280;51310;52.198;5.422;2022-12-01T15:01:21;102561.13;;;4.29;100.00
64844;BME280;51310;52.198;5.422;2022-12-01T15:03:58;102565.31;;;4.28;100.00
64844;BME280;51310;52.198;5.422;2022-12-01T15:06:29;102563.94;;;4.19;100.00
64844;BME280;51310;52.198;5.422;2022-12-01T15:09:15;102561.16;;;4.12;100.00